Time;durP1;ratioP1;P1;durP2;ratioP2;P2;SDS_P1;SDS_P2;PMS_P1;PMS_P2;Temp;Humidity;BMP_temperature;BMP_pressure;BME280_temperature;BME280_humidity;BME280_pressure;Samples;Min_cycle;Max_cycle;Signal;HPM_P1;HPM_P2
2023/05/14 00:08:51;;;;;;;11.80;6.90;;;;;;;9.17;57.14;100638.72;30736190;28;96737;-68
2023/05/14 00:23:51;;;;;;;10.38;6.10;;;;;;;8.98;57.99;100629.06;30734113;28;98146;-70
2023/05/14 00:38:51;;;;;;;12.07;6.43;;;;;;;8.88;58.76;100623.78;30733818;28;96722;-70
2023/05/14 00:53:52;;;;;;;8.20;6.05;;;;;;;9.34;58.86;100626.44;30733155;28;96973;-70
2023/05/14 01:09:09;;;;;;;11.23;6.90;;;;;;;9.36;58.62;100621.78;30732053;28;97380;-70
2023/05/14 01:24:09;;;;;;;10.80;6.87;;;;;;;9.20;59.16;100614.50;30752526;28;97244;-76
2023/05/14 01:39:11;;;;;;;12.95;7.22;;;;;;;9.08;59.67;100613.06;30750971;28;96620;-75
2023/05/14 01:54:11;;;;;;;10.23;6.60;;;;;;;8.92;60.11;100598.59;30749872;28;97027;-70
2023/05/14 02:09:12;;;;;;;11.45;6.40;;;;;;;8.74;60.46;100606.53;30747258;28;110596;-73
2023/05/14 02:24:12;;;;;;;9.57;6.60;;;;;;;8.52;60.76;100591.81;30746111;28;97115;-72
2023/05/14 02:39:12;;;;;;;11.02;6.50;;;;;;;8.30;61.24;100587.69;30745807;28;96646;-77
2023/05/14 02:54:15;;;;;;;17.52;7.40;;;;;;;8.18;61.70;100580.91;30743749;28;96754;-69
2023/05/14 03:09:15;;;;;;;10.97;6.17;;;;;;;8.08;62.60;100579.09;30741525;28;96537;-66
2023/05/14 03:24:15;;;;;;;10.40;6.75;;;;;;;8.06;62.42;100575.75;30740352;28;97213;-68
2023/05/14 03:39:18;;;;;;;12.80;6.65;;;;;;;8.10;62.66;100592.22;30738834;28;97053;-66
2023/05/14 03:54:19;;;;;;;11.60;6.80;;;;;;;8.27;63.55;100582.69;30737493;28;96693;-66
2023/05/14 04:09:19;;;;;;;10.88;6.72;;;;;;;8.59;63.29;100571.66;30735586;28;96762;-68
2023/05/14 04:24:20;;;;;;;10.35;6.85;;;;;;;9.06;63.02;100573.34;30734661;28;96736;-75
2023/05/14 04:39:20;;;;;;;10.63;6.78;;;;;;;9.60;62.39;100569.81;30748877;28;107951;-72
2023/05/14 04:54:20;;;;;;;9.93;6.72;;;;;;;10.30;61.49;100563.59;30762840;28;98258;-67
2023/05/14 05:09:20;;;;;;;8.18;6.65;;;;;;;11.11;60.42;100548.88;30752202;28;96755;-68
2023/05/14 05:24:21;;;;;;;9.48;6.78;;;;;;;12.02;59.07;100554.19;30751077;28;97491;-69
2023/05/14 05:39:21;;;;;;;8.70;6.40;;;;;;;13.01;57.23;100532.31;30749082;28;103025;-72
2023/05/14 05:54:23;;;;;;;9.48;6.38;;;;;;;13.51;55.82;100530.13;30761242;28;104910;-69
2023/05/14 06:09:23;;;;;;;8.93;6.23;;;;;;;13.99;53.99;100543.22;30761211;28;97129;-73
2023/05/14 06:24:24;;;;;;;10.90;6.63;;;;;;;14.56;53.09;100525.63;30744174;28;102637;-77
2023/05/14 06:39:24;;;;;;;12.15;6.55;;;;;;;15.07;52.32;100525.56;30743700;28;97325;-66
2023/05/14 06:54:25;;;;;;;8.13;5.15;;;;;;;15.33;50.99;100512.59;30739525;28;97255;-72
2023/05/14 07:09:25;;;;;;;7.63;5.10;;;;;;;16.18;49.95;100493.75;30738711;28;97526;-69
2023/05/14 07:24:25;;;;;;;6.57;3.55;;;;;;;17.08;47.65;100477.47;30739044;28;97552;-73
2023/05/14 07:39:26;;;;;;;5.38;3.20;;;;;;;17.57;45.04;100467.28;30738725;28;96723;-73
2023/05/14 07:54:26;;;;;;;4.65;2.63;;;;;;;18.07;42.79;100448.75;30735849;28;96853;-70
2023/05/14 08:09:26;;;;;;;2.75;2.08;;;;;;;19.39;39.78;100454.53;30734808;28;96718;-74
2023/05/14 08:24:28;;;;;;;;;;;;;;;19.85;37.31;100441.66;30732235;28;97586;-68
2023/05/14 08:39:28;;;;;;;3.25;1.88;;;;;;;20.23;35.66;100432.41;30733141;28;96642;-67
2023/05/14 08:54:31;;;;;;;2.42;1.70;;;;;;;20.87;34.35;100413.00;30730476;28;111650;-73
2023/05/14 09:09:31;;;;;;;3.30;1.70;;;;;;;21.95;32.87;100391.84;30731063;28;96915;-78
2023/05/14 09:24:32;;;;;;;2.47;1.65;;;;;;;22.28;32.20;100384.88;30727015;28;99425;-78
2023/05/14 09:39:35;;;;;;;2.80;1.73;;;;;;;21.76;32.60;100357.81;30742003;28;96671;-73
2023/05/14 09:54:36;;;;;;;2.93;1.60;;;;;;;21.72;32.51;100343.09;30746350;28;96787;-76
2023/05/14 10:09:40;;;;;;;4.35;2.40;;;;;;;23.45;31.02;100334.56;30745129;28;98009;-80
2023/05/14 10:24:41;;;;;;;3.30;1.70;;;;;;;24.30;29.56;100323.28;30744430;28;97072;-80
2023/05/14 10:40:00;;;;;;;2.97;1.60;;;;;;;24.17;28.68;100305.47;30759997;28;96718;-81
2023/05/14 10:55:08;;;;;;;2.83;1.70;;;;;;;24.46;28.21;100294.28;30741413;28;96857;-80
2023/05/14 11:10:14;;;;;;;2.47;1.87;;;;;;;25.28;27.36;100273.00;30740451;28;96855;-81
2023/05/14 11:25:15;;;;;;;3.27;2.43;;;;;;;26.85;25.74;100252.69;30739000;28;96680;-80
2023/05/14 11:40:15;;;;;;;5.82;1.60;;;;;;;28.80;23.14;100246.25;30737375;28;97687;-73
2023/05/14 11:55:16;;;;;;;2.65;1.40;;;;;;;29.18;22.54;100227.16;30736175;28;96648;-79
2023/05/14 12:10:17;;;;;;;2.47;1.95;;;;;;;26.82;23.26;100220.47;30734994;28;96869;-73
2023/05/14 12:25:17;;;;;;;4.25;2.03;;;;;;;25.91;24.06;100212.06;30733500;28;97559;-77
2023/05/14 12:40:17;;;;;;;3.88;2.33;;;;;;;25.91;23.99;100192.97;30732747;28;96953;-80
2023/05/14 12:55:18;;;;;;;3.30;2.10;;;;;;;25.63;24.32;100195.13;30746284;28;98338;-78
2023/05/14 13:10:18;;;;;;;4.53;2.40;;;;;;;25.01;24.97;100175.03;30738914;28;96718;-80
2023/05/14 13:25:18;;;;;;;6.40;3.15;;;;;;;23.62;27.09;100160.47;30752034;28;96645;-80
2023/05/14 13:40:19;;;;;;;5.38;3.50;;;;;;;23.93;28.36;100152.63;30749745;28;96723;-75
2023/05/14 13:55:19;;;;;;;5.35;3.25;;;;;;;23.74;28.24;100153.00;30746777;28;96738;-68
2023/05/14 14:10:20;;;;;;;;;;;;;;;22.76;29.71;100137.53;30746319;28;97102;-73
2023/05/14 14:25:20;;;;;;;7.67;4.10;;;;;;;22.00;31.73;100136.16;30747704;28;97572;-81
2023/05/14 14:40:22;;;;;;;6.70;4.63;;;;;;;21.57;32.55;100126.78;30745245;28;96707;-81
2023/05/14 14:55:22;;;;;;;7.23;4.23;;;;;;;21.03;33.01;100116.31;30742731;28;96855;-79
2023/05/14 15:10:23;;;;;;;9.00;4.43;;;;;;;20.57;34.03;100099.91;30740711;28;104240;-78
2023/05/14 15:25:23;;;;;;;7.50;4.32;;;;;;;20.25;34.70;100079.50;30738593;28;103015;-81
2023/05/14 15:40:25;;;;;;;6.72;4.38;;;;;;;20.03;35.13;100070.38;30737958;28;96780;-78
2023/05/14 15:55:26;;;;;;;6.67;3.97;;;;;;;19.93;35.63;100054.75;30736539;28;96819;-78
2023/05/14 16:10:26;;;;;;;7.85;4.43;;;;;;;19.72;36.29;100048.81;30738478;28;102461;-73
2023/05/14 16:25:29;;;;;;;7.32;4.80;;;;;;;19.20;37.52;100025.13;30735656;28;101902;-81
2023/05/14 16:40:29;;;;;;;7.77;5.20;;;;;;;18.82;38.82;100011.97;30734555;28;96728;-81
2023/05/14 16:55:29;;;;;;;11.00;5.97;;;;;;;18.81;39.18;100032.72;30730495;28;107668;-76
2023/05/14 17:10:32;;;;;;;7.38;5.57;;;;;;;18.76;39.47;100030.69;30729800;28;97375;-76
2023/05/14 17:25:32;;;;;;;9.57;5.87;;;;;;;18.50;39.96;100026.47;30730715;28;96798;-76
2023/05/14 17:40:33;;;;;;;7.20;5.68;;;;;;;18.29;40.38;100013.47;30727781;28;96745;-71
2023/05/14 17:55:38;;;;;;;10.45;6.00;;;;;;;18.17;40.89;100010.72;30733930;28;97049;-74
2023/05/14 18:10:39;;;;;;;8.60;5.87;;;;;;;18.03;41.51;100004.63;30746685;28;96770;-71
2023/05/14 18:25:39;;;;;;;10.93;6.10;;;;;;;17.91;42.51;99991.91;30745392;28;96673;-73
2023/05/14 18:40:39;;;;;;;10.95;5.65;;;;;;;17.74;42.63;99975.47;30744350;28;96658;-73
2023/05/14 18:55:40;;;;;;;7.10;4.80;;;;;;;17.65;43.19;99973.28;30742522;28;104720;-73
2023/05/14 19:10:40;;;;;;;8.25;5.25;;;;;;;17.54;43.31;99978.34;30740015;28;96755;-75
2023/05/14 19:25:40;;;;;;;11.02;6.00;;;;;;;17.46;44.24;99967.84;30739863;28;96904;-66
2023/05/14 19:40:41;;;;;;;9.20;6.97;;;;;;;17.00;47.04;100021.00;30737867;28;102684;-69
2023/05/14 19:55:41;;;;;;;8.88;6.50;;;;;;;16.56;49.47;99926.66;30737007;28;97433;-69
2023/05/14 20:10:43;;;;;;;9.65;6.28;;;;;;;16.30;52.41;99929.53;30735812;28;96717;-65
2023/05/14 20:25:43;;;;;;;9.67;6.47;;;;;;;15.83;54.24;99932.41;30731516;28;96750;-68
2023/05/14 20:40:44;;;;;;;7.25;5.78;;;;;;;15.67;56.44;99909.47;30732212;28;98612;-68
2023/05/14 20:55:44;;;;;;;8.15;6.00;;;;;;;15.48;57.62;99887.81;30732108;28;98468;-72
2023/05/14 21:10:45;;;;;;;9.63;7.18;;;;;;;15.28;60.06;99876.28;30731732;28;97218;-73
2023/05/14 21:25:45;;;;;;;9.93;7.47;;;;;;;14.89;61.41;99938.63;30732206;28;96665;-70
2023/05/14 21:40:45;;;;;;;11.13;8.20;;;;;;;14.20;64.02;99928.94;30750721;28;96818;-67
2023/05/14 21:55:45;;;;;;;12.32;7.53;;;;;;;13.94;65.09;99926.97;30749216;28;108503;-70
2023/05/14 22:10:46;;;;;;;11.90;8.45;;;;;;;13.78;66.35;99883.47;30748874;28;96622;-69
2023/05/14 22:25:46;;;;;;;10.73;8.20;;;;;;;13.66;67.13;99847.56;30747941;28;97489;-72
2023/05/14 22:40:47;;;;;;;13.40;10.23;;;;;;;13.58;67.86;99831.69;30747114;28;96687;-66
2023/05/14 22:55:47;;;;;;;15.40;9.73;;;;;;;13.52;68.53;99820.75;30744281;28;96765;-67
2023/05/14 23:10:47;;;;;;;13.82;9.65;;;;;;;13.42;68.93;99798.03;30742836;28;105304;-69
2023/05/14 23:25:49;;;;;;;12.52;10.25;;;;;;;13.39;69.91;99783.22;30742526;28;96824;-74
2023/05/14 23:40:49;;;;;;;12.50;9.03;;;;;;;13.36;70.13;99756.88;30741232;28;97941;-72
2023/05/14 23:55:49;;;;;;;11.23;8.25;;;;;;;13.31;70.72;99719.16;30738142;28;96801;-68
